Metar z połowy godziny Komunikat METAR ze strony awiacja.imgw.pl Metar G00 EPLL METAR EPLL 261730Z 28010KT 9999 SCT027 OVC031 01/M03 Q1009 =